Time;durP1;ratioP1;P1;durP2;ratioP2;P2;SDS_P1;SDS_P2;PMS_P1;PMS_P2;Temp;Humidity;BMP_temperature;BMP_pressure;BME280_temperature;BME280_humidity;BME280_pressure;Samples;Min_cycle;Max_cycle;Signal;HPM_P1;HPM_P2
2023/05/22 00:01:50;;;;;;;8.07;2.63;;;13.10;99.90;;;;;;5066812;28;20518;-61
2023/05/22 00:04:20;;;;;;;6.20;2.85;;;13.20;99.90;;;;;;5077211;28;20064;-60
2023/05/22 00:06:47;;;;;;;14.07;2.85;;;13.10;99.90;;;;;;5067113;28;20044;-60
2023/05/22 00:09:15;;;;;;;9.07;2.92;;;13.10;99.90;;;;;;5067276;28;20056;-60
2023/05/22 00:11:41;;;;;;;5.97;3.28;;;13.10;99.90;;;;;;5067288;28;20115;-60
2023/05/22 00:14:08;;;;;;;5.63;2.60;;;13.00;99.90;;;;;;5058896;28;20072;-60
2023/05/22 00:16:35;;;;;;;6.90;2.17;;;13.00;99.90;;;;;;5067516;28;20435;-60
2023/05/22 00:19:02;;;;;;;4.88;2.25;;;12.90;99.90;;;;;;5067030;28;20041;-60
2023/05/22 00:21:33;;;;;;;7.47;3.35;;;12.90;99.90;;;;;;5067163;28;20499;-60
2023/05/22 00:24:03;;;;;;;6.60;2.22;;;12.90;99.90;;;;;;5066929;28;20044;-60
2023/05/22 00:26:30;;;;;;;6.60;2.80;;;12.90;99.90;;;;;;5067176;28;20129;-60
2023/05/22 00:29:07;;;;;;;6.64;2.86;;;12.90;99.90;;;;;;5061118;28;10000674;-60
2023/05/22 00:31:34;;;;;;;8.73;2.95;;;12.90;99.90;;;;;;5064491;28;20252;-60
2023/05/22 00:34:00;;;;;;;8.13;2.22;;;12.90;99.90;;;;;;5064387;28;20553;-60
2023/05/22 00:36:27;;;;;;;7.38;2.50;;;12.80;99.90;;;;;;5064481;28;20112;-60
2023/05/22 00:38:54;;;;;;;8.02;3.03;;;12.80;99.90;;;;;;5064314;28;20469;-60
2023/05/22 00:41:21;;;;;;;7.82;3.50;;;12.80;99.90;;;;;;5064061;28;20076;-59
2023/05/22 00:43:49;;;;;;;6.45;2.70;;;12.70;99.90;;;;;;5064108;28;20645;-59
2023/05/22 00:46:20;;;;;;;10.43;2.97;;;12.80;99.90;;;;;;5064624;28;20084;-59
2023/05/22 00:48:47;;;;;;;7.50;2.95;;;12.70;99.90;;;;;;5065982;28;20056;-59
2023/05/22 00:51:14;;;;;;;8.43;2.50;;;12.70;99.90;;;;;;5068118;28;20507;-60
2023/05/22 00:53:42;;;;;;;7.03;3.00;;;12.70;99.90;;;;;;5063643;28;20052;-60
2023/05/22 00:56:09;;;;;;;8.35;2.92;;;12.70;99.90;;;;;;5056282;28;20137;-60
2023/05/22 00:58:36;;;;;;;11.93;2.80;;;12.70;99.90;;;;;;5067482;28;20052;-61
2023/05/22 01:01:05;;;;;;;6.80;2.33;;;12.60;99.90;;;;;;5067714;28;20048;-60
2023/05/22 01:03:32;;;;;;;9.40;2.50;;;12.60;99.90;;;;;;5068358;28;20044;-60
2023/05/22 01:06:00;;;;;;;7.25;2.47;;;12.60;99.90;;;;;;5067840;28;20319;-60
2023/05/22 01:08:26;;;;;;;7.15;2.47;;;12.60;99.90;;;;;;5067777;28;20064;-60
2023/05/22 01:11:03;;;;;;;7.25;2.53;;;12.60;99.90;;;;;;5067292;28;20518;-60
2023/05/22 01:13:49;;;;;;;9.52;3.05;;;12.60;99.90;;;;;;5064325;28;20122;-60
2023/05/22 01:16:53;;;;;;;8.13;2.72;;;12.50;99.90;;;;;;5056103;28;20077;-60
2023/05/22 01:19:49;;;;;;;9.18;2.83;;;12.50;99.90;;;;;;5067690;28;20044;-60
2023/05/22 01:22:34;;;;;;;6.28;3.00;;;12.50;99.90;;;;;;5047381;28;20056;-61
2023/05/22 01:25:27;;;;;;;5.13;2.67;;;12.40;99.90;;;;;;5080840;28;20691;-60
2023/05/22 01:28:13;;;;;;;15.50;5.07;;;12.40;99.90;;;;;;5073324;28;20052;-60
2023/05/22 01:30:47;;;;;;;6.05;2.60;;;12.50;99.90;;;;;;5067765;28;20453;-60
2023/05/22 01:33:17;;;;;;;6.90;2.90;;;12.50;99.90;;;;;;5070076;28;20048;-61
2023/05/22 01:35:45;;;;;;;5.25;2.55;;;12.50;99.90;;;;;;5064545;28;20140;-61
2023/05/22 01:38:12;;;;;;;9.02;3.72;;;12.40;99.90;;;;;;5067079;28;20605;-60
2023/05/22 01:40:39;;;;;;;8.43;3.17;;;12.40;99.90;;;;;;5047806;28;20385;-60
2023/05/22 01:43:07;;;;;;;9.35;3.65;;;12.40;99.90;;;;;;5069905;28;20885;-60
2023/05/22 01:45:34;;;;;;;9.88;3.08;;;12.50;99.90;;;;;;5063196;28;20044;-60
2023/05/22 01:48:01;;;;;;;7.03;2.72;;;12.40;99.90;;;;;;5066811;28;20055;-60
2023/05/22 01:50:28;;;;;;;5.57;3.08;;;12.40;99.90;;;;;;5066765;28;20082;-60
2023/05/22 01:53:02;;;;;;;11.07;3.03;;;12.40;99.90;;;;;;5075414;28;20503;-61
2023/05/22 01:55:34;;;;;;;5.53;2.28;;;12.40;99.90;;;;;;5054793;28;20049;-61
2023/05/22 01:58:22;;;;;;;8.63;3.05;;;12.40;99.90;;;;;;5059652;28;20048;-59
2023/05/22 02:00:50;;;;;;;15.75;4.80;;;12.40;99.90;;;;;;5079359;28;20045;-59
2023/05/22 02:03:18;;;;;;;6.95;2.30;;;12.50;99.90;;;;;;5038492;28;20063;-60
2023/05/22 02:05:45;;;;;;;6.53;2.80;;;12.50;99.90;;;;;;5056061;28;20060;-59
2023/05/22 02:08:12;;;;;;;8.57;2.75;;;12.50;99.90;;;;;;5058066;28;20149;-59
2023/05/22 02:10:39;;;;;;;7.63;3.15;;;12.50;99.90;;;;;;5069113;28;20102;-59
2023/05/22 02:13:06;;;;;;;10.73;3.17;;;12.50;99.90;;;;;;5041272;28;20045;-59
2023/05/22 02:15:33;;;;;;;8.45;3.17;;;12.50;99.90;;;;;;5069289;28;20474;-59
2023/05/22 02:18:00;;;;;;;7.85;2.88;;;12.60;99.90;;;;;;5068416;28;20044;-59
2023/05/22 02:20:28;;;;;;;10.65;3.78;;;12.60;99.90;;;;;;5068800;28;20487;-59
2023/05/22 02:22:55;;;;;;;6.35;3.13;;;12.70;99.90;;;;;;5068623;28;20052;-60
2023/05/22 02:25:21;;;;;;;5.20;2.92;;;12.70;99.90;;;;;;5065029;28;20040;-59
2023/05/22 02:27:48;;;;;;;6.40;2.92;;;12.80;99.90;;;;;;5068449;28;20502;-60
2023/05/22 02:30:15;;;;;;;7.82;2.97;;;12.80;99.90;;;;;;5068748;28;20044;-59
2023/05/22 02:32:42;;;;;;;9.43;3.40;;;12.70;99.90;;;;;;5068719;28;20049;-59
2023/05/22 02:35:09;;;;;;;6.97;3.15;;;12.80;99.90;;;;;;5068315;28;20053;-60
2023/05/22 02:37:36;;;;;;;12.80;3.60;;;12.80;99.90;;;;;;5068685;28;20068;-59
2023/05/22 02:40:06;;;;;;;8.75;3.55;;;12.90;99.90;;;;;;5068262;28;20037;-62
2023/05/22 02:42:33;;;;;;;8.32;3.40;;;12.90;99.90;;;;;;5068260;28;20052;-59
2023/05/22 02:45:00;;;;;;;8.75;3.50;;;12.90;99.90;;;;;;5068252;28;20207;-59
2023/05/22 02:47:27;;;;;;;9.40;3.17;;;12.90;99.90;;;;;;5068440;28;20041;-59
2023/05/22 02:49:53;;;;;;;10.65;3.25;;;12.90;99.90;;;;;;5068003;28;20063;-59
2023/05/22 02:52:21;;;;;;;8.45;3.13;;;12.90;99.90;;;;;;5068107;28;20474;-59
2023/05/22 02:54:48;;;;;;;6.82;3.40;;;12.90;99.90;;;;;;5067697;28;20048;-60
2023/05/22 02:57:14;;;;;;;5.80;2.60;;;13.00;99.90;;;;;;5068388;28;20056;-60
2023/05/22 02:59:41;;;;;;;8.07;3.03;;;13.00;99.90;;;;;;5067704;28;20495;-60
2023/05/22 03:02:08;;;;;;;7.72;3.80;;;12.90;99.90;;;;;;5068134;28;20539;-60
2023/05/22 03:04:37;;;;;;;6.63;3.13;;;13.00;99.90;;;;;;5067676;28;20074;-60
2023/05/22 03:07:06;;;;;;;6.13;2.55;;;13.00;99.90;;;;;;5068082;28;20671;-60
2023/05/22 03:09:33;;;;;;;11.05;3.35;;;13.00;99.90;;;;;;5067480;28;20059;-60
2023/05/22 03:11:59;;;;;;;9.35;4.00;;;12.90;99.90;;;;;;5067275;28;20040;-59
2023/05/22 03:14:27;;;;;;;10.05;3.72;;;12.90;99.90;;;;;;5067734;28;20105;-58
2023/05/22 03:16:55;;;;;;;7.30;3.35;;;12.90;99.90;;;;;;5067603;28;20479;-59
2023/05/22 03:19:21;;;;;;;12.60;3.92;;;13.00;99.90;;;;;;5067661;28;20056;-60
2023/05/22 03:21:48;;;;;;;11.70;3.47;;;13.00;99.90;;;;;;5067925;28;20052;-60
2023/05/22 03:24:15;;;;;;;8.50;3.75;;;12.90;99.90;;;;;;5067508;28;20141;-60
2023/05/22 03:26:42;;;;;;;9.95;3.47;;;12.90;99.90;;;;;;5070553;28;20546;-60
2023/05/22 03:29:09;;;;;;;8.98;3.75;;;12.90;99.90;;;;;;5067653;28;20066;-60
2023/05/22 03:31:36;;;;;;;8.93;3.67;;;13.00;99.90;;;;;;5067420;28;20045;-60
2023/05/22 03:34:04;;;;;;;6.55;3.42;;;13.00;99.90;;;;;;5067314;28;20060;-62
2023/05/22 03:36:34;;;;;;;10.73;4.10;;;13.00;99.90;;;;;;5067345;28;20059;-60
2023/05/22 03:39:02;;;;;;;14.25;3.95;;;12.90;99.90;;;;;;5054824;28;20123;-60
2023/05/22 03:41:29;;;;;;;10.77;3.95;;;12.90;99.90;;;;;;5067192;28;20047;-60
2023/05/22 03:43:56;;;;;;;6.65;3.20;;;13.00;99.90;;;;;;5067150;28;20113;-59
2023/05/22 03:46:23;;;;;;;11.88;4.15;;;13.00;99.90;;;;;;5067291;28;20049;-59
2023/05/22 03:48:50;;;;;;;8.63;4.65;;;13.00;99.90;;;;;;5038571;28;20492;-59
2023/05/22 03:51:20;;;;;;;18.02;5.50;;;13.00;99.90;;;;;;5064802;28;20094;-61
2023/05/22 03:53:48;;;;;;;7.53;3.25;;;13.00;99.90;;;;;;5056734;28;20044;-59
2023/05/22 03:56:15;;;;;;;7.60;3.90;;;13.00;99.90;;;;;;4715227;28;10000146;-59
2023/05/22 03:58:42;;;;;;;5.80;3.50;;;12.90;99.90;;;;;;5067287;28;20571;-59
2023/05/22 04:01:10;;;;;;;7.10;4.00;;;12.90;99.90;;;;;;5066951;28;20048;-60
2023/05/22 04:03:36;;;;;;;9.35;3.22;;;12.90;99.90;;;;;;5067377;28;20090;-60
2023/05/22 04:06:04;;;;;;;9.95;3.42;;;12.90;99.90;;;;;;5064844;28;20072;-60
2023/05/22 04:08:31;;;;;;;7.82;3.40;;;12.80;99.90;;;;;;5053611;28;20094;-60
2023/05/22 04:10:58;;;;;;;6.38;3.28;;;12.80;99.90;;;;;;5067082;28;20125;-60
2023/05/22 04:13:26;;;;;;;6.78;3.63;;;12.80;99.90;;;;;;5066741;28;20557;-60
2023/05/22 04:15:52;;;;;;;7.90;3.22;;;12.80;99.90;;;;;;5067009;28;20052;-58
2023/05/22 04:18:19;;;;;;;8.85;3.88;;;12.80;99.90;;;;;;5066905;28;20135;-61
2023/05/22 04:20:46;;;;;;;12.75;4.15;;;12.80;99.90;;;;;;5067085;28;20458;-59
2023/05/22 04:23:13;;;;;;;11.20;4.43;;;12.80;99.90;;;;;;5067541;28;20562;-59
2023/05/22 04:25:40;;;;;;;6.05;3.00;;;12.80;99.90;;;;;;5070951;28;20048;-59
2023/05/22 04:28:08;;;;;;;8.13;3.22;;;12.80;99.90;;;;;;5070722;28;20093;-59
2023/05/22 04:30:38;;;;;;;9.77;3.42;;;12.80;99.90;;;;;;5059275;28;20140;-60
2023/05/22 04:33:07;;;;;;;13.45;5.10;;;12.80;99.90;;;;;;5070639;28;20491;-60
2023/05/22 04:35:34;;;;;;;9.05;3.40;;;12.70;99.90;;;;;;5070872;28;20064;-59
2023/05/22 04:38:00;;;;;;;10.23;3.25;;;12.70;99.90;;;;;;5062685;28;20049;-60
2023/05/22 04:40:32;;;;;;;12.63;3.60;;;12.70;99.90;;;;;;5070983;28;20044;-60
2023/05/22 04:43:00;;;;;;;10.23;3.63;;;12.70;99.90;;;;;;5069941;28;20094;-60
2023/05/22 04:45:27;;;;;;;7.45;4.15;;;12.70;99.90;;;;;;5057974;28;20619;-59
2023/05/22 04:47:54;;;;;;;7.60;3.80;;;12.70;99.90;;;;;;5070306;28;20056;-59
2023/05/22 04:50:22;;;;;;;9.43;4.63;;;12.70;99.90;;;;;;5070693;28;20048;-59
2023/05/22 04:52:49;;;;;;;7.20;4.15;;;12.70;99.90;;;;;;5070287;28;20123;-60
2023/05/22 04:55:17;;;;;;;8.30;4.20;;;12.70;99.90;;;;;;5070304;28;20522;-60
2023/05/22 04:57:46;;;;;;;15.27;4.20;;;12.80;99.90;;;;;;5070433;28;20098;-59
2023/05/22 05:00:14;;;;;;;10.25;4.43;;;12.80;99.90;;;;;;5070536;28;20053;-60
2023/05/22 05:02:41;;;;;;;11.40;3.95;;;12.80;99.90;;;;;;5070119;28;20049;-60
2023/05/22 05:05:08;;;;;;;7.65;4.20;;;12.90;99.90;;;;;;5070246;28;20059;-60
2023/05/22 05:07:38;;;;;;;11.95;4.78;;;12.90;99.90;;;;;;5069926;28;20048;-60
2023/05/22 05:10:06;;;;;;;7.65;3.95;;;13.00;99.90;;;;;;5070076;28;20487;-60
2023/05/22 05:12:33;;;;;;;16.38;4.60;;;13.00;99.90;;;;;;5069666;28;20534;-60
2023/05/22 05:14:59;;;;;;;9.68;4.68;;;13.00;99.90;;;;;;5070142;28;20044;-60
2023/05/22 05:17:26;;;;;;;12.45;4.90;;;13.10;99.90;;;;;;5070321;28;20098;-60
2023/05/22 05:19:54;;;;;;;11.77;4.72;;;13.10;99.90;;;;;;5069681;28;20586;-60
2023/05/22 05:22:20;;;;;;;14.25;5.05;;;13.10;99.90;;;;;;5063283;28;20458;-59
2023/05/22 05:24:47;;;;;;;10.82;4.95;;;13.10;99.90;;;;;;5069407;28;20549;-60
2023/05/22 05:27:14;;;;;;;10.20;4.82;;;13.10;99.90;;;;;;5070180;28;20131;-60
2023/05/22 05:29:41;;;;;;;10.20;4.15;;;13.10;99.90;;;;;;5069258;28;20504;-59
2023/05/22 05:32:10;;;;;;;10.23;4.60;;;13.10;99.90;;;;;;5069738;28;20098;-59
2023/05/22 05:34:37;;;;;;;19.67;6.13;;;13.20;99.90;;;;;;5060209;28;20059;-59
2023/05/22 05:37:04;;;;;;;11.93;4.93;;;13.20;99.90;;;;;;5070208;28;20037;-61
2023/05/22 05:39:30;;;;;;;13.65;7.95;;;13.20;99.90;;;;;;5069501;28;20045;-61
2023/05/22 05:41:57;;;;;;;13.10;4.55;;;13.20;99.90;;;;;;5069567;28;20041;-61
2023/05/22 05:44:24;;;;;;;10.05;4.97;;;13.20;99.90;;;;;;5069488;28;20454;-60
2023/05/22 05:46:51;;;;;;;6.85;4.07;;;13.30;99.90;;;;;;5069385;28;20067;-60
2023/05/22 05:49:18;;;;;;;11.43;4.15;;;13.30;99.90;;;;;;5070460;28;20056;-60
2023/05/22 05:51:45;;;;;;;6.72;3.75;;;13.40;99.90;;;;;;5069294;28;20044;-60
2023/05/22 05:54:12;;;;;;;6.32;4.10;;;13.40;99.90;;;;;;5069263;28;20067;-61
2023/05/22 05:56:39;;;;;;;11.05;4.07;;;13.40;99.90;;;;;;5069062;28;20044;-59
2023/05/22 05:59:06;;;;;;;12.88;4.88;;;13.40;99.90;;;;;;5068813;28;20080;-60
2023/05/22 06:01:33;;;;;;;12.10;5.32;;;13.50;99.90;;;;;;5068299;28;20052;-59
2023/05/22 06:04:04;;;;;;;14.00;4.88;;;13.50;99.90;;;;;;5068625;28;20048;-62
2023/05/22 06:06:38;;;;;;;8.95;4.40;;;13.50;99.90;;;;;;5068400;28;20098;-60
2023/05/22 06:09:05;;;;;;;13.32;3.83;;;13.50;99.90;;;;;;5068284;28;20067;-60
2023/05/22 06:11:32;;;;;;;8.70;4.82;;;13.50;99.90;;;;;;5068404;28;20041;-60
2023/05/22 06:14:01;;;;;;;7.43;3.75;;;13.60;99.90;;;;;;5069165;28;20074;-59
2023/05/22 06:16:28;;;;;;;13.02;4.72;;;13.60;99.90;;;;;;5057850;28;20044;-60
2023/05/22 06:18:57;;;;;;;9.85;3.50;;;13.60;99.90;;;;;;5069824;28;20450;-61
2023/05/22 06:21:23;;;;;;;9.05;3.63;;;13.60;99.90;;;;;;5068918;28;20045;-60
2023/05/22 06:23:50;;;;;;;8.18;3.88;;;13.60;99.90;;;;;;5069704;28;20446;-60
2023/05/22 06:26:17;;;;;;;6.82;4.18;;;13.60;99.90;;;;;;5069264;28;20048;-59
2023/05/22 06:28:44;;;;;;;8.80;4.60;;;13.70;99.90;;;;;;5069152;28;20098;-60
2023/05/22 06:31:11;;;;;;;10.18;4.50;;;13.70;99.90;;;;;;5069255;28;20127;-59
2023/05/22 06:33:39;;;;;;;8.75;4.22;;;13.80;99.90;;;;;;5065598;28;20075;-60
2023/05/22 06:36:07;;;;;;;12.88;4.38;;;13.80;99.90;;;;;;5068773;28;20040;-60
2023/05/22 06:38:36;;;;;;;10.93;4.50;;;13.90;99.90;;;;;;5046838;28;20052;-61
2023/05/22 06:41:04;;;;;;;9.52;3.92;;;14.00;99.90;;;;;;5068469;28;20415;-60
2023/05/22 06:43:31;;;;;;;10.95;4.47;;;14.10;99.90;;;;;;5065381;28;20040;-60
2023/05/22 06:45:58;;;;;;;12.38;4.05;;;14.20;99.90;;;;;;5062392;28;20048;-65
2023/05/22 06:48:25;;;;;;;7.10;3.90;;;14.30;99.90;;;;;;5068292;28;20052;-61
2023/05/22 06:50:51;;;;;;;8.55;4.15;;;14.30;99.90;;;;;;5068439;28;20049;-60
2023/05/22 06:53:18;;;;;;;12.93;4.63;;;14.20;99.90;;;;;;5067758;28;20044;-62
2023/05/22 06:55:45;;;;;;;11.27;4.13;;;14.20;99.90;;;;;;5068194;28;20052;-60
2023/05/22 06:58:12;;;;;;;15.40;4.63;;;14.10;99.90;;;;;;5068382;28;20075;-59
2023/05/22 07:00:39;;;;;;;7.72;3.97;;;14.10;99.90;;;;;;5068260;28;20086;-61
2023/05/22 07:03:06;;;;;;;8.95;4.28;;;14.10;99.90;;;;;;5068018;28;20082;-59
2023/05/22 07:05:33;;;;;;;7.25;4.15;;;14.00;99.90;;;;;;5068426;28;20051;-60
2023/05/22 07:08:00;;;;;;;9.27;4.13;;;14.00;99.90;;;;;;5067705;28;20109;-60
2023/05/22 07:10:27;;;;;;;12.20;4.20;;;14.00;99.90;;;;;;5067644;28;20060;-62
2023/05/22 07:12:54;;;;;;;8.27;4.53;;;13.80;99.90;;;;;;5067136;28;20049;-60
2023/05/22 07:15:20;;;;;;;12.07;4.32;;;13.90;99.90;;;;;;5068163;28;20549;-60
2023/05/22 07:17:48;;;;;;;8.98;4.88;;;14.00;99.90;;;;;;5049622;28;20518;-60
2023/05/22 07:20:16;;;;;;;16.52;4.13;;;14.10;99.90;;;;;;5055601;28;20055;-60
2023/05/22 07:22:43;;;;;;;8.18;3.67;;;14.20;99.90;;;;;;5066048;28;20055;-60
2023/05/22 07:25:10;;;;;;;13.77;4.22;;;14.30;99.90;;;;;;5067334;28;20076;-60
2023/05/22 07:27:36;;;;;;;10.50;4.00;;;14.30;99.90;;;;;;5067884;28;20041;-60
2023/05/22 07:30:04;;;;;;;8.00;4.88;;;14.40;99.90;;;;;;5067200;28;20095;-61
2023/05/22 07:32:31;;;;;;;9.85;4.38;;;14.40;99.90;;;;;;5068502;28;20044;-59
2023/05/22 07:34:58;;;;;;;12.48;4.82;;;14.40;99.90;;;;;;5067616;28;20053;-61
2023/05/22 07:37:25;;;;;;;13.13;4.75;;;14.50;99.90;;;;;;5067608;28;20048;-61
2023/05/22 07:39:52;;;;;;;10.35;4.03;;;14.60;99.90;;;;;;5067540;28;20048;-60
2023/05/22 07:42:18;;;;;;;20.48;5.15;;;14.80;99.90;;;;;;5067336;28;20080;-60
2023/05/22 07:44:45;;;;;;;8.40;4.07;;;14.80;99.90;;;;;;5067626;28;20052;-62
2023/05/22 07:47:12;;;;;;;12.38;4.50;;;14.90;99.90;;;;;;5067572;28;20128;-60
2023/05/22 07:49:39;;;;;;;8.82;4.70;;;14.80;99.90;;;;;;5063821;28;20044;-61
2023/05/22 07:52:06;;;;;;;31.33;7.88;;;14.80;99.90;;;;;;5064322;28;20110;-60
2023/05/22 07:54:33;;;;;;;10.63;4.65;;;14.90;99.90;;;;;;5067083;28;20502;-62
2023/05/22 07:57:02;;;;;;;18.15;4.88;;;15.00;99.90;;;;;;5067386;28;20472;-61
2023/05/22 07:59:29;;;;;;;12.35;4.55;;;15.20;99.90;;;;;;5067713;28;20384;-61
2023/05/22 08:01:56;;;;;;;13.13;5.05;;;15.30;99.90;;;;;;5067501;28;20410;-61
2023/05/22 08:04:24;;;;;;;5.65;4.28;;;15.40;99.90;;;;;;5067833;28;20087;-60
2023/05/22 08:06:52;;;;;;;7.20;3.55;;;15.30;99.90;;;;;;5067737;28;20162;-64
2023/05/22 08:09:20;;;;;;;9.88;4.15;;;15.40;99.90;;;;;;5067570;28;20052;-61
2023/05/22 08:11:47;;;;;;;7.68;3.72;;;15.60;99.90;;;;;;5066766;28;20041;-60
2023/05/22 08:14:13;;;;;;;8.88;3.92;;;15.60;99.90;;;;;;5068023;28;20170;-60
2023/05/22 08:16:40;;;;;;;11.15;4.85;;;15.70;99.90;;;;;;5067519;28;20044;-61
2023/05/22 08:19:07;;;;;;;10.18;3.92;;;15.70;99.90;;;;;;5068082;28;20094;-61
2023/05/22 08:21:34;;;;;;;6.57;3.60;;;15.60;99.90;;;;;;5054096;28;20047;-61
2023/05/22 08:24:01;;;;;;;8.95;4.07;;;15.50;99.90;;;;;;5067789;28;20091;-61
2023/05/22 08:26:28;;;;;;;18.13;4.25;;;15.60;99.90;;;;;;5067731;28;20074;-60
2023/05/22 08:28:57;;;;;;;14.70;4.10;;;15.70;99.90;;;;;;5067606;28;20071;-60
2023/05/22 08:31:24;;;;;;;6.57;3.70;;;15.70;99.90;;;;;;5054212;28;20044;-60
2023/05/22 08:33:51;;;;;;;8.60;4.00;;;15.70;99.90;;;;;;5067886;28;20056;-60
2023/05/22 08:36:18;;;;;;;12.05;4.85;;;15.70;99.90;;;;;;5067400;28;20064;-61
2023/05/22 08:38:44;;;;;;;7.95;4.18;;;15.80;99.90;;;;;;5067828;28;20054;-60
2023/05/22 08:41:11;;;;;;;12.15;3.40;;;15.80;99.90;;;;;;5067512;28;20106;-61
2023/05/22 08:43:38;;;;;;;11.90;3.67;;;15.90;99.90;;;;;;5059038;28;20083;-61
2023/05/22 08:46:07;;;;;;;8.02;3.20;;;16.00;99.90;;;;;;5050016;28;20132;-61
2023/05/22 08:48:34;;;;;;;10.90;3.63;;;16.20;99.90;;;;;;5048910;28;20056;-61
2023/05/22 08:51:04;;;;;;;5.57;3.22;;;16.30;99.90;;;;;;5066040;28;20048;-61
2023/05/22 08:53:35;;;;;;;12.48;3.53;;;16.30;99.90;;;;;;5067513;28;20049;-61
2023/05/22 08:56:03;;;;;;;9.05;3.83;;;16.30;99.90;;;;;;5067637;28;20099;-60
2023/05/22 08:58:31;;;;;;;8.68;4.05;;;16.20;99.90;;;;;;5067644;28;20094;-60
2023/05/22 09:00:58;;;;;;;5.57;3.35;;;16.10;99.90;;;;;;5066434;28;20057;-62
2023/05/22 09:03:33;;;;;;;10.38;2.95;;;16.00;99.90;;;;;;5067332;28;20043;-60
2023/05/22 09:06:02;;;;;;;8.82;3.40;;;15.90;99.90;;;;;;5067922;28;20114;-61
2023/05/22 09:08:29;;;;;;;7.55;2.92;;;15.90;99.90;;;;;;5067403;28;20057;-60
2023/05/22 09:10:56;;;;;;;8.50;3.15;;;15.90;99.90;;;;;;5069421;28;20044;-60
2023/05/22 09:13:27;;;;;;;8.27;3.55;;;15.90;99.90;;;;;;5070757;28;20048;-61
2023/05/22 09:16:06;;;;;;;9.27;3.40;;;15.90;99.90;;;;;;5070884;28;20117;-60
2023/05/22 09:18:33;;;;;;;16.92;3.65;;;15.80;99.90;;;;;;5070477;28;20037;-61
2023/05/22 09:21:01;;;;;;;8.40;3.90;;;15.90;99.90;;;;;;5069518;28;20102;-59
2023/05/22 09:23:32;;;;;;;8.52;3.05;;;16.00;99.90;;;;;;5070570;28;20491;-59
2023/05/22 09:25:59;;;;;;;7.10;3.22;;;16.00;99.90;;;;;;5070601;28;20078;-59
2023/05/22 09:28:27;;;;;;;10.75;3.30;;;16.20;99.90;;;;;;5069869;28;20094;-60
2023/05/22 09:30:54;;;;;;;8.05;3.17;;;16.30;99.90;;;;;;5070765;28;20056;-60
2023/05/22 09:33:22;;;;;;;14.90;3.30;;;16.40;99.90;;;;;;5070140;28;20044;-60
2023/05/22 09:35:51;;;;;;;7.55;3.30;;;16.50;99.90;;;;;;5070684;28;20041;-60
2023/05/22 09:38:17;;;;;;;5.60;3.03;;;16.60;99.90;;;;;;5070390;28;20044;-60
2023/05/22 09:40:44;;;;;;;8.30;3.78;;;16.50;99.90;;;;;;5070482;28;20049;-59
2023/05/22 09:43:11;;;;;;;8.13;3.30;;;16.50;99.90;;;;;;5038225;28;20060;-60
2023/05/22 09:45:38;;;;;;;14.65;3.88;;;16.50;99.90;;;;;;5070275;28;20080;-60
2023/05/22 09:48:05;;;;;;;8.75;3.20;;;16.40;99.90;;;;;;5069878;28;20079;-61
2023/05/22 09:50:32;;;;;;;6.95;3.22;;;16.40;99.90;;;;;;5072066;28;20086;-61
2023/05/22 09:53:03;;;;;;;10.32;4.53;;;16.30;99.90;;;;;;5070031;28;20131;-60
2023/05/22 09:55:30;;;;;;;8.32;3.55;;;16.20;99.90;;;;;;5072933;28;20068;-60
2023/05/22 09:58:00;;;;;;;5.88;3.65;;;16.20;99.90;;;;;;5060208;28;20056;-60
2023/05/22 10:00:26;;;;;;;8.13;3.85;;;16.10;99.90;;;;;;5042234;28;20064;-60
2023/05/22 10:03:17;;;;;;;12.32;4.70;;;15.90;99.90;;;;;;5057590;28;20104;-60
2023/05/22 10:05:49;;;;;;;6.07;3.38;;;15.90;99.90;;;;;;5066407;28;20044;-61
2023/05/22 10:08:28;;;;;;;8.48;3.58;;;15.80;99.90;;;;;;5069282;28;20087;-60
2023/05/22 10:10:56;;;;;;;14.10;3.88;;;15.90;99.90;;;;;;5062748;28;20063;-60
2023/05/22 10:13:23;;;;;;;10.10;3.22;;;15.90;99.90;;;;;;5052274;28;20044;-60
2023/05/22 10:15:50;;;;;;;12.13;4.35;;;15.80;99.90;;;;;;5060420;28;20045;-60
2023/05/22 10:18:17;;;;;;;11.02;3.17;;;15.80;99.90;;;;;;5044055;28;20070;-61
2023/05/22 10:20:45;;;;;;;13.48;3.83;;;15.80;99.90;;;;;;5077165;28;20302;-60
2023/05/22 10:23:13;;;;;;;17.48;3.92;;;15.90;99.90;;;;;;5069858;28;20048;-61
2023/05/22 10:25:40;;;;;;;9.70;3.58;;;15.80;99.90;;;;;;5060262;28;20494;-61
2023/05/22 10:28:07;;;;;;;12.10;3.70;;;15.80;99.90;;;;;;5072570;28;20044;-61
2023/05/22 10:30:46;;;;;;;7.70;3.20;;;15.80;99.90;;;;;;5078553;28;20102;-61
2023/05/22 10:33:28;;;;;;;8.98;3.20;;;15.90;99.90;;;;;;5043346;28;20275;-61
2023/05/22 10:36:04;;;;;;;13.05;3.90;;;15.90;99.90;;;;;;5040123;28;20048;-61
2023/05/22 10:38:49;;;;;;;5.82;3.28;;;16.00;99.90;;;;;;5039602;28;20046;-61
2023/05/22 10:41:16;;;;;;;14.55;3.88;;;16.10;99.90;;;;;;5077782;28;20048;-61
2023/05/22 10:43:43;;;;;;;12.25;3.53;;;16.30;99.90;;;;;;5059671;28;20107;-61
2023/05/22 10:46:11;;;;;;;10.25;3.92;;;16.40;99.90;;;;;;5076079;28;20048;-60
2023/05/22 10:48:47;;;;;;;10.25;3.63;;;16.40;99.90;;;;;;5077064;28;20558;-60
2023/05/22 10:51:17;;;;;;;10.82;3.10;;;16.60;99.90;;;;;;5076619;28;20052;-61
2023/05/22 10:53:44;;;;;;;9.02;2.92;;;16.60;99.90;;;;;;5079303;28;20072;-60
2023/05/22 10:56:15;;;;;;;7.20;3.28;;;16.80;99.90;;;;;;5080029;28;20147;-60
2023/05/22 10:58:44;;;;;;;8.50;3.35;;;17.00;99.90;;;;;;5079556;28;20048;-59
2023/05/22 11:01:14;;;;;;;11.88;4.93;;;17.30;99.90;;;;;;5059108;28;20048;-60
2023/05/22 11:03:54;;;;;;;12.75;3.10;;;17.60;99.90;;;;;;5056367;28;20051;-60
2023/05/22 11:06:48;;;;;;;6.68;3.30;;;17.80;99.90;;;;;;5076100;28;20048;-61
2023/05/22 11:09:19;;;;;;;5.07;3.25;;;17.90;99.90;;;;;;5075858;28;20060;-60
2023/05/22 11:11:46;;;;;;;7.78;4.00;;;17.80;99.90;;;;;;5072302;28;20093;-60
2023/05/22 11:14:17;;;;;;;6.30;3.40;;;17.80;99.90;;;;;;5074008;28;20051;-62
2023/05/22 11:16:43;;;;;;;8.80;3.03;;;17.80;99.90;;;;;;5073126;28;20044;-60
2023/05/22 11:19:10;;;;;;;5.28;3.03;;;17.80;99.90;;;;;;5076000;28;20093;-60
2023/05/22 11:21:44;;;;;;;8.30;3.55;;;17.70;99.90;;;;;;5061910;28;20466;-60
2023/05/22 11:24:12;;;;;;;5.95;3.20;;;17.70;99.90;;;;;;5042008;28;20093;-61
2023/05/22 11:26:42;;;;;;;7.00;2.90;;;17.70;99.90;;;;;;4701536;28;10000239;-61
2023/05/22 11:29:09;;;;;;;8.05;2.97;;;17.80;99.90;;;;;;5071372;28;20060;-61
2023/05/22 11:31:36;;;;;;;11.25;3.38;;;17.90;99.90;;;;;;5069283;28;20124;-60
2023/05/22 11:34:03;;;;;;;12.63;3.47;;;17.90;99.90;;;;;;5070011;28;20094;-61
2023/05/22 11:36:30;;;;;;;6.15;3.40;;;17.90;99.90;;;;;;5065323;28;20052;-61
2023/05/22 11:38:58;;;;;;;8.07;3.13;;;18.00;99.90;;;;;;5075007;28;20096;-61
2023/05/22 11:41:34;;;;;;;9.88;4.00;;;18.00;99.90;;;;;;5065028;28;20075;-60
2023/05/22 11:44:01;;;;;;;5.28;3.03;;;18.10;99.90;;;;;;5072277;28;20739;-60
2023/05/22 11:46:29;;;;;;;11.82;2.85;;;18.00;99.90;;;;;;5065393;28;20105;-60
2023/05/22 11:48:55;;;;;;;7.28;3.00;;;17.80;99.90;;;;;;5059251;28;20080;-60
2023/05/22 11:51:22;;;;;;;15.23;3.08;;;17.70;99.90;;;;;;5078726;28;20044;-62
2023/05/22 11:53:49;;;;;;;5.45;3.20;;;17.60;99.90;;;;;;5059473;28;20526;-60
2023/05/22 11:56:18;;;;;;;7.95;3.17;;;17.50;99.90;;;;;;5065176;28;20052;-60
2023/05/22 11:58:50;;;;;;;16.00;3.20;;;17.50;99.90;;;;;;5064843;28;20129;-60
2023/05/22 12:01:17;;;;;;;9.73;4.35;;;17.40;99.90;;;;;;5044707;28;20471;-60
2023/05/22 12:03:44;;;;;;;13.35;3.60;;;17.20;99.90;;;;;;5059930;28;20060;-61
2023/05/22 12:06:11;;;;;;;9.10;3.30;;;17.10;99.90;;;;;;5067888;28;20055;-60
2023/05/22 12:08:42;;;;;;;8.73;3.53;;;17.10;99.90;;;;;;5062213;28;20053;-61
2023/05/22 12:11:10;;;;;;;11.63;4.38;;;17.10;99.90;;;;;;5053602;28;20515;-60
2023/05/22 12:13:37;;;;;;;9.00;3.72;;;17.20;99.90;;;;;;5054381;28;20110;-60
2023/05/22 12:16:17;;;;;;;12.43;3.65;;;17.20;99.90;;;;;;5058480;28;20101;-60
2023/05/22 12:18:44;;;;;;;11.63;3.97;;;17.20;99.90;;;;;;5070576;28;20048;-60
2023/05/22 12:21:11;;;;;;;15.20;4.03;;;17.20;99.90;;;;;;5059060;28;20048;-61
2023/05/22 12:23:46;;;;;;;10.93;3.28;;;17.20;99.90;;;;;;5073303;28;20671;-61
2023/05/22 12:26:13;;;;;;;12.38;3.80;;;17.20;99.90;;;;;;5077272;28;20044;-60
2023/05/22 12:28:40;;;;;;;5.75;3.08;;;17.30;99.90;;;;;;5074825;28;20094;-60
2023/05/22 12:31:07;;;;;;;7.47;3.22;;;17.30;99.90;;;;;;5059113;28;20106;-61
2023/05/22 12:33:33;;;;;;;16.88;3.17;;;17.30;99.90;;;;;;5074563;28;20484;-60
2023/05/22 12:36:05;;;;;;;9.73;3.75;;;17.40;99.90;;;;;;5075876;28;20044;-60
2023/05/22 12:38:32;;;;;;;9.77;2.95;;;17.50;99.90;;;;;;5051303;28;20732;-60
2023/05/22 12:41:01;;;;;;;12.93;4.07;;;17.50;99.90;;;;;;5075059;28;20143;-60
2023/05/22 12:43:28;;;;;;;5.88;2.22;;;17.50;99.90;;;;;;5074225;28;20339;-60
2023/05/22 12:45:54;;;;;;;8.57;3.30;;;17.50;99.90;;;;;;5074729;28;20040;-60
2023/05/22 12:48:21;;;;;;;7.47;2.90;;;17.50;99.90;;;;;;5080546;28;20097;-61
2023/05/22 12:50:48;;;;;;;9.27;2.47;;;17.30;99.90;;;;;;5076723;28;20125;-60